Time;durP1;ratioP1;P1;durP2;ratioP2;P2;SDS_P1;SDS_P2;PMS_P1;PMS_P2;Temp;Humidity;BMP_temperature;BMP_pressure;BME280_temperature;BME280_humidity;BME280_pressure;Samples;Min_cycle;Max_cycle;Signal;HPM_P1;HPM_P2
2021/07/22 00:00:31;;;;;;;13.77;10.70;;;;;;;-145.12;100.00;63763.75;341796;28;137346;-68
2021/07/22 00:01:42;;;;;;;15.82;10.98;;;;;;;-145.12;100.00;63763.75;343293;28;136501;-67
2021/07/22 00:02:54;;;;;;;15.25;11.00;;;;;;;-145.12;100.00;63763.75;342826;28;138420;-68
2021/07/22 00:04:05;;;;;;;14.93;10.77;;;;;;;-145.12;100.00;63763.75;343158;28;138431;-68
2021/07/22 00:05:17;;;;;;;16.17;11.20;;;;;;;-145.12;100.00;63763.75;342783;28;137055;-68
2021/07/22 00:06:28;;;;;;;14.57;10.95;;;;;;;-145.12;100.00;63763.75;343108;28;137049;-68
2021/07/22 00:07:39;;;;;;;14.63;11.50;;;;;;;-145.12;100.00;63763.75;343030;28;137732;-67
2021/07/22 00:08:50;;;;;;;15.52;11.13;;;;;;;-145.12;100.00;63763.75;340349;28;138558;-69
2021/07/22 00:10:01;;;;;;;17.75;11.10;;;;;;;-145.12;100.00;63763.75;340306;28;138203;-67
2021/07/22 00:11:13;;;;;;;20.70;11.30;;;;;;;-145.12;100.00;63763.75;341736;28;138369;-67
2021/07/22 00:12:24;;;;;;;15.40;11.35;;;;;;;-145.12;100.00;63763.75;341722;28;137321;-68
2021/07/22 00:13:35;;;;;;;15.40;10.73;;;;;;;-145.12;100.00;63763.75;341863;28;137715;-69
2021/07/22 00:14:46;;;;;;;13.75;10.45;;;;;;;-145.12;100.00;63763.75;341599;28;136519;-67
2021/07/22 00:15:58;;;;;;;15.20;10.90;;;;;;;-145.12;100.00;63763.75;341700;28;137395;-68
2021/07/22 00:17:12;;;;;;;16.00;11.27;;;;;;;-145.12;100.00;63763.75;341665;28;138353;-68
2021/07/22 00:18:25;;;;;;;16.25;11.50;;;;;;;-145.12;100.00;63763.75;341643;28;138451;-69
2021/07/22 00:19:36;;;;;;;15.90;11.40;;;;;;;-145.12;100.00;63763.75;340957;28;159358;-68
2021/07/22 00:20:48;;;;;;;14.20;11.15;;;;;;;-145.12;100.00;63763.75;341865;28;137507;-68
2021/07/22 00:21:59;;;;;;;15.60;11.13;;;;;;;-145.12;100.00;63763.75;343004;28;138955;-69
2021/07/22 00:23:12;;;;;;;15.93;11.48;;;;;;;-145.12;100.00;63763.75;342799;28;137072;-69
2021/07/22 00:24:23;;;;;;;14.66;11.20;;;;;;;-145.12;100.00;63763.75;343651;28;160068;-67
2021/07/22 00:25:34;;;;;;;16.05;11.52;;;;;;;-145.12;100.00;63763.75;344550;28;136338;-67
2021/07/22 00:26:45;;;;;;;17.13;11.15;;;;;;;-145.12;100.00;63763.75;342644;28;138276;-68
2021/07/22 00:27:56;;;;;;;14.05;11.00;;;;;;;-145.12;100.00;63763.75;342960;28;137002;-67
2021/07/22 00:29:08;;;;;;;15.13;11.07;;;;;;;-145.12;100.00;63763.75;343141;28;137222;-68
2021/07/22 00:30:19;;;;;;;14.27;10.95;;;;;;;-145.12;100.00;63763.75;341718;28;137709;-69
2021/07/22 00:31:30;;;;;;;14.26;10.62;;;;;;;-145.12;100.00;63763.75;342136;28;159832;-68
2021/07/22 00:32:41;;;;;;;14.07;10.95;;;;;;;-145.12;100.00;63763.75;343071;28;137264;-68
2021/07/22 00:33:52;;;;;;;14.55;10.95;;;;;;;-145.12;100.00;63763.75;342851;28;137325;-67
2021/07/22 00:35:04;;;;;;;16.80;11.40;;;;;;;-145.12;100.00;63763.75;341614;28;138035;-67
2021/07/22 00:36:16;;;;;;;15.27;10.77;;;;;;;-145.12;100.00;63763.75;340928;28;161239;-67
2021/07/22 00:37:27;;;;;;;15.90;11.20;;;;;;;-145.12;100.00;63763.75;343240;28;138276;-68
2021/07/22 00:38:38;;;;;;;14.60;10.80;;;;;;;-145.12;100.00;63763.75;342946;28;138116;-68
2021/07/22 00:39:49;;;;;;;16.85;11.65;;;;;;;-145.12;100.00;63763.75;342947;28;138544;-68
2021/07/22 00:41:01;;;;;;;16.58;11.05;;;;;;;-145.12;100.00;63763.75;340840;28;160972;-68
2021/07/22 00:42:12;;;;;;;15.13;11.10;;;;;;;-145.12;100.00;63763.75;341004;28;160087;-68
2021/07/22 00:43:23;;;;;;;14.75;11.13;;;;;;;-145.12;100.00;63763.75;341770;28;137259;-67
2021/07/22 00:44:35;;;;;;;14.43;11.10;;;;;;;-145.12;100.00;63763.75;341881;28;138482;-68
2021/07/22 00:45:46;;;;;;;14.55;11.00;;;;;;;-145.12;100.00;63763.75;341790;28;138329;-68
2021/07/22 00:46:57;;;;;;;16.13;11.50;;;;;;;-145.12;100.00;63763.75;341872;28;137138;-67
2021/07/22 00:48:09;;;;;;;14.85;11.38;;;;;;;-145.12;100.00;63763.75;343207;28;137075;-69
2021/07/22 00:49:20;;;;;;;15.05;11.25;;;;;;;-145.12;100.00;63763.75;342967;28;137377;-68
2021/07/22 00:50:31;;;;;;;15.00;11.10;;;;;;;-145.12;100.00;63763.75;342952;28;136985;-68
2021/07/22 00:51:42;;;;;;;16.63;11.15;;;;;;;-145.12;100.00;63763.75;343271;28;137939;-68
2021/07/22 00:52:54;;;;;;;14.00;10.50;;;;;;;-145.12;100.00;63763.75;342340;28;160077;-67
2021/07/22 00:54:06;;;;;;;16.23;11.20;;;;;;;-145.12;100.00;63763.75;343225;28;137097;-68
2021/07/22 00:55:18;;;;;;;15.57;11.30;;;;;;;-145.12;100.00;63763.75;343226;28;136437;-68
2021/07/22 00:56:30;;;;;;;15.70;11.30;;;;;;;-145.12;100.00;63763.75;343227;28;138299;-68
2021/07/22 00:57:41;;;;;;;14.98;11.32;;;;;;;-145.12;100.00;63763.75;341818;28;138306;-68
2021/07/22 00:58:52;;;;;;;14.18;10.80;;;;;;;-145.12;100.00;63763.75;341781;28;137317;-67
2021/07/22 01:00:04;;;;;;;14.68;11.00;;;;;;;-145.12;100.00;63763.75;341902;28;136388;-68
2021/07/22 01:01:15;;;;;;;14.48;11.57;;;;;;;-145.12;100.00;63763.75;341588;28;138474;-67
2021/07/22 01:02:27;;;;;;;18.02;11.25;;;;;;;-145.12;100.00;63763.75;342953;28;137093;-68
2021/07/22 01:03:39;;;;;;;17.58;11.25;;;;;;;-145.12;100.00;63763.75;343127;28;137406;-67
2021/07/22 01:04:50;;;;;;;14.43;11.05;;;;;;;-145.12;100.00;63763.75;343188;28;138423;-68
2021/07/22 01:06:01;;;;;;;14.18;10.95;;;;;;;-145.12;100.00;63763.75;342508;28;159483;-68
2021/07/22 01:07:12;;;;;;;15.95;11.35;;;;;;;-145.12;100.00;63763.75;342993;28;136538;-68
2021/07/22 01:08:24;;;;;;;13.20;10.77;;;;;;;-145.12;100.00;63763.75;341647;28;137382;-67
2021/07/22 01:09:36;;;;;;;14.10;10.52;;;;;;;-145.12;100.00;63763.75;341839;28;137294;-68
2021/07/22 01:10:49;;;;;;;15.88;11.13;;;;;;;-145.12;100.00;63763.75;343199;28;137737;-68
2021/07/22 01:12:00;;;;;;;14.98;11.20;;;;;;;-145.12;100.00;63763.75;341820;28;161374;-67
2021/07/22 01:13:12;;;;;;;13.35;10.90;;;;;;;-145.12;100.00;63763.75;341848;28;137217;-68
2021/07/22 01:14:23;;;;;;;14.65;10.90;;;;;;;-145.12;100.00;63763.75;341780;28;138444;-68
2021/07/22 01:15:34;;;;;;;16.30;11.50;;;;;;;-145.12;100.00;63763.75;341713;28;138557;-68
2021/07/22 01:16:45;;;;;;;14.72;10.60;;;;;;;-145.12;100.00;63763.75;340948;28;160309;-68
2021/07/22 01:17:57;;;;;;;13.68;10.82;;;;;;;-145.12;100.00;63763.75;341033;28;160335;-67
2021/07/22 01:19:09;;;;;;;14.20;11.20;;;;;;;-145.12;100.00;63763.75;343168;28;138070;-67
2021/07/22 01:20:21;;;;;;;15.85;10.88;;;;;;;-145.12;100.00;63763.75;343016;28;137191;-67
2021/07/22 01:21:32;;;;;;;15.60;11.15;;;;;;;-145.12;100.00;63763.75;343179;28;137214;-67
2021/07/22 01:22:47;;;;;;;14.80;11.30;;;;;;;-145.12;100.00;63763.75;342344;28;138118;-68
2021/07/22 01:24:01;;;;;;;13.60;10.80;;;;;;;-145.12;100.00;63763.75;342014;28;136565;-67
2021/07/22 01:25:12;;;;;;;14.63;11.00;;;;;;;-145.12;100.00;63763.75;341776;28;138467;-68
2021/07/22 01:26:24;;;;;;;16.13;10.95;;;;;;;-145.12;100.00;63763.75;341822;28;137433;-68
2021/07/22 01:27:35;;;;;;;14.40;11.10;;;;;;;-145.12;100.00;63763.75;341734;28;137236;-68
2021/07/22 01:28:47;;;;;;;14.25;10.57;;;;;;;-145.12;100.00;63763.75;341785;28;137184;-68
2021/07/22 01:29:58;;;;;;;14.02;10.35;;;;;;;-145.12;100.00;63763.75;341740;28;138368;-67
2021/07/22 01:31:10;;;;;;;17.25;10.85;;;;;;;-145.12;100.00;63763.75;341791;28;137092;-67
2021/07/22 01:32:22;;;;;;;14.23;10.98;;;;;;;-145.12;100.00;63763.75;341591;28;137307;-68
2021/07/22 01:33:33;;;;;;;14.05;10.90;;;;;;;-145.12;100.00;63763.75;342321;28;138251;-67
2021/07/22 01:34:44;;;;;;;14.57;10.90;;;;;;;-145.12;100.00;63763.75;341791;28;138309;-68
2021/07/22 01:35:56;;;;;;;15.27;11.55;;;;;;;-145.12;100.00;63763.75;341919;28;137041;-66
2021/07/22 01:37:07;;;;;;;13.65;10.32;;;;;;;-145.12;100.00;63763.75;341743;28;137047;-68
2021/07/22 01:38:19;;;;;;;14.15;10.27;;;;;;;-145.12;100.00;63763.75;341798;28;138289;-68
2021/07/22 01:39:30;;;;;;;15.05;10.73;;;;;;;-145.12;100.00;63763.75;341831;28;138166;-68
2021/07/22 01:40:42;;;;;;;14.23;10.65;;;;;;;-145.12;100.00;63763.75;341836;28;138561;-67
2021/07/22 01:41:53;;;;;;;14.73;10.60;;;;;;;-145.12;100.00;63763.75;340631;28;138280;-67
2021/07/22 01:43:05;;;;;;;13.18;10.68;;;;;;;-145.12;100.00;63763.75;341621;28;137586;-67
2021/07/22 01:44:17;;;;;;;14.93;11.15;;;;;;;-145.12;100.00;63763.75;343034;28;137476;-67
2021/07/22 01:45:28;;;;;;;12.77;10.15;;;;;;;-145.12;100.00;63763.75;342688;28;138410;-68
2021/07/22 01:46:39;;;;;;;15.05;10.90;;;;;;;-145.12;100.00;63763.75;343184;28;137264;-67
2021/07/22 01:47:50;;;;;;;13.65;10.40;;;;;;;-145.12;100.00;63763.75;343038;28;137369;-68
2021/07/22 01:49:02;;;;;;;14.32;10.43;;;;;;;-145.12;100.00;63763.75;343330;28;137828;-67
2021/07/22 01:50:13;;;;;;;13.13;10.45;;;;;;;-145.12;100.00;63763.75;342997;28;137112;-66
2021/07/22 01:51:24;;;;;;;15.02;10.50;;;;;;;-145.12;100.00;63763.75;343090;28;138271;-67
2021/07/22 01:52:34;;;;;;;13.40;10.65;;;;;;;-145.12;100.00;63763.75;345537;28;137282;-68
2021/07/22 01:53:45;;;;;;;14.57;10.65;;;;;;;-145.12;100.00;63763.75;344502;28;137256;-67
2021/07/22 01:54:56;;;;;;;15.07;10.93;;;;;;;-145.12;100.00;63763.75;343829;28;160478;-67
2021/07/22 01:56:08;;;;;;;15.23;10.75;;;;;;;-145.12;100.00;63763.75;344529;28;137145;-67
2021/07/22 01:57:19;;;;;;;13.80;10.40;;;;;;;-145.12;100.00;63763.75;342940;28;138355;-67
2021/07/22 01:58:30;;;;;;;13.32;10.20;;;;;;;-145.12;100.00;63763.75;342754;28;137703;-67
2021/07/22 01:59:42;;;;;;;14.30;10.20;;;;;;;-145.12;100.00;63763.75;343127;28;138507;-67
2021/07/22 02:00:53;;;;;;;14.10;10.88;;;;;;;-145.12;100.00;63763.75;341716;28;137800;-68
2021/07/22 02:02:04;;;;;;;14.32;10.25;;;;;;;-145.12;100.00;63763.75;341543;28;138189;-66
2021/07/22 02:03:18;;;;;;;14.13;10.63;;;;;;;-145.12;100.00;63763.75;344741;28;137378;-67
2021/07/22 02:04:29;;;;;;;14.45;10.55;;;;;;;-145.12;100.00;63763.75;344334;28;138157;-67
2021/07/22 02:05:40;;;;;;;14.02;10.48;;;;;;;-145.12;100.00;63763.75;344430;28;136518;-67
2021/07/22 02:06:51;;;;;;;14.75;10.80;;;;;;;-145.12;100.00;63763.75;343018;28;137035;-68
2021/07/22 02:08:03;;;;;;;15.32;11.05;;;;;;;-145.12;100.00;63763.75;342920;28;137316;-67
2021/07/22 02:09:14;;;;;;;15.32;11.00;;;;;;;-145.12;100.00;63763.75;344455;28;137073;-67
2021/07/22 02:10:25;;;;;;;13.85;10.90;;;;;;;-145.12;100.00;63763.75;343727;28;160346;-66
2021/07/22 02:11:37;;;;;;;13.68;10.70;;;;;;;-145.12;100.00;63763.75;342984;28;137415;-67
2021/07/22 02:12:48;;;;;;;14.23;10.98;;;;;;;-145.12;100.00;63763.75;342977;28;137480;-67
2021/07/22 02:13:59;;;;;;;14.15;10.50;;;;;;;-145.12;100.00;63763.75;344529;28;138467;-66
2021/07/22 02:15:11;;;;;;;14.40;10.60;;;;;;;-145.12;100.00;63763.75;342188;28;161293;-66
2021/07/22 02:16:22;;;;;;;15.27;10.90;;;;;;;-145.12;100.00;63763.75;342960;28;137231;-67
2021/07/22 02:17:33;;;;;;;13.93;11.02;;;;;;;-145.12;100.00;63763.75;343669;28;161112;-67
2021/07/22 02:18:44;;;;;;;14.18;10.68;;;;;;;-145.12;100.00;63763.75;344399;28;137035;-68
2021/07/22 02:19:56;;;;;;;14.48;11.30;;;;;;;-145.12;100.00;63763.75;344459;28;137001;-67
2021/07/22 02:21:08;;;;;;;13.27;10.75;;;;;;;-145.12;100.00;63763.75;344525;28;137361;-68
2021/07/22 02:22:19;;;;;;;14.55;10.82;;;;;;;-145.12;100.00;63763.75;343629;28;161258;-68
2021/07/22 02:23:30;;;;;;;14.75;11.00;;;;;;;-145.12;100.00;63763.75;343154;28;136425;-68
2021/07/22 02:24:41;;;;;;;16.38;11.18;;;;;;;-145.12;100.00;63763.75;342803;28;138399;-68
2021/07/22 02:25:52;;;;;;;14.70;10.98;;;;;;;-145.12;100.00;63763.75;344232;28;137279;-68
2021/07/22 02:27:07;;;;;;;13.52;10.80;;;;;;;-145.12;100.00;63763.75;345830;28;136546;-68
2021/07/22 02:28:18;;;;;;;15.60;11.23;;;;;;;-145.12;100.00;63763.75;343710;28;160182;-68
2021/07/22 02:29:30;;;;;;;14.60;11.20;;;;;;;-145.12;100.00;63763.75;344524;28;137070;-68
2021/07/22 02:30:41;;;;;;;14.70;10.73;;;;;;;-145.12;100.00;63763.75;342435;28;160217;-69
2021/07/22 02:31:52;;;;;;;14.27;11.10;;;;;;;-145.12;100.00;63763.75;343102;28;137726;-69
2021/07/22 02:33:03;;;;;;;14.88;11.27;;;;;;;-145.12;100.00;63763.75;342267;28;161456;-68
2021/07/22 02:34:14;;;;;;;14.38;11.27;;;;;;;-145.12;100.00;63763.75;344484;28;138611;-67
2021/07/22 02:35:26;;;;;;;14.85;11.10;;;;;;;-145.12;100.00;63763.75;344415;28;137266;-69
2021/07/22 02:36:37;;;;;;;15.05;11.13;;;;;;;-145.12;100.00;63763.75;342881;28;137807;-68
2021/07/22 02:37:48;;;;;;;16.50;11.00;;;;;;;-145.12;100.00;63763.75;343321;28;137711;-68
2021/07/22 02:39:00;;;;;;;15.90;11.30;;;;;;;-145.12;100.00;63763.75;342977;28;136471;-69
2021/07/22 02:40:11;;;;;;;16.33;11.07;;;;;;;-145.12;100.00;63763.75;343175;28;136503;-69
2021/07/22 02:41:22;;;;;;;16.58;11.02;;;;;;;-145.12;100.00;63763.75;343061;28;136402;-68
2021/07/22 02:42:33;;;;;;;13.73;11.00;;;;;;;-145.12;100.00;63763.75;343085;28;138470;-68
2021/07/22 02:43:44;;;;;;;15.00;11.43;;;;;;;-145.12;100.00;63763.75;343211;28;137517;-68
2021/07/22 02:44:55;;;;;;;15.07;10.98;;;;;;;-145.12;100.00;63763.75;343457;28;137280;-69
2021/07/22 02:46:07;;;;;;;14.63;11.30;;;;;;;-145.12;100.00;63763.75;343354;28;138559;-68
2021/07/22 02:47:19;;;;;;;15.13;11.50;;;;;;;-145.12;100.00;63763.75;343421;28;136916;-68
2021/07/22 02:48:31;;;;;;;15.75;11.38;;;;;;;-145.12;100.00;63763.75;342545;28;159357;-68
2021/07/22 02:49:42;;;;;;;17.95;11.77;;;;;;;-145.12;100.00;63763.75;343329;28;137242;-69
2021/07/22 02:50:53;;;;;;;14.70;11.73;;;;;;;-145.12;100.00;63763.75;343260;28;136544;-69
2021/07/22 02:52:06;;;;;;;15.57;11.52;;;;;;;-145.12;100.00;63763.75;343387;28;137542;-68
2021/07/22 02:53:17;;;;;;;15.65;11.38;;;;;;;-145.12;100.00;63763.75;343235;28;137079;-68
2021/07/22 02:54:28;;;;;;;15.98;11.43;;;;;;;-145.12;100.00;63763.75;343303;28;137973;-67
2021/07/22 02:55:39;;;;;;;17.15;12.23;;;;;;;-145.12;100.00;63763.75;343423;28;137116;-69
2021/07/22 02:56:52;;;;;;;16.35;12.15;;;;;;;-145.12;100.00;63763.75;343443;28;137456;-68
2021/07/22 02:58:05;;;;;;;15.82;11.73;;;;;;;-145.12;100.00;63763.75;343439;28;137538;-68
2021/07/22 02:59:16;;;;;;;16.40;12.07;;;;;;;-145.12;100.00;63763.75;342409;28;161387;-68
2021/07/22 03:00:27;;;;;;;18.23;11.77;;;;;;;-145.12;100.00;63763.75;343362;28;137310;-68
2021/07/22 03:01:39;;;;;;;16.30;11.90;;;;;;;-145.12;100.00;63763.75;343418;28;138764;-68
2021/07/22 03:02:51;;;;;;;16.20;11.88;;;;;;;-145.12;100.00;63763.75;343141;28;138496;-67
2021/07/22 03:04:02;;;;;;;15.52;12.00;;;;;;;-145.12;100.00;63763.75;342577;28;160998;-67
2021/07/22 03:05:13;;;;;;;15.68;12.02;;;;;;;-145.12;100.00;63763.75;343401;28;138748;-68
2021/07/22 03:06:24;;;;;;;17.27;11.70;;;;;;;-145.12;100.00;63763.75;343199;28;137763;-68
2021/07/22 03:07:37;;;;;;;15.48;11.80;;;;;;;-145.12;100.00;63763.75;343218;28;137230;-68
2021/07/22 03:08:48;;;;;;;18.20;11.88;;;;;;;-145.12;100.00;63763.75;341968;28;134904;-69
2021/07/22 03:09:59;;;;;;;19.58;12.15;;;;;;;-145.12;100.00;63763.75;341699;28;137832;-67
2021/07/22 03:11:10;;;;;;;16.17;12.55;;;;;;;-145.12;100.00;63763.75;343335;28;136978;-68
2021/07/22 03:12:21;;;;;;;15.68;11.95;;;;;;;-145.12;100.00;63763.75;343123;28;137123;-69
2021/07/22 03:13:34;;;;;;;16.27;11.85;;;;;;;-145.12;100.00;63763.75;341967;28;137052;-68
2021/07/22 03:14:45;;;;;;;15.98;11.85;;;;;;;-145.12;100.00;63763.75;341912;28;138302;-68
2021/07/22 03:15:57;;;;;;;15.88;11.70;;;;;;;-145.12;100.00;63763.75;341962;28;136973;-67
2021/07/22 03:17:08;;;;;;;17.83;12.45;;;;;;;-145.12;100.00;63763.75;342156;28;137236;-67
2021/07/22 03:18:22;;;;;;;17.23;13.07;;;;;;;-145.12;100.00;63763.75;341993;28;137201;-67
2021/07/22 03:19:33;;;;;;;17.45;12.73;;;;;;;-145.12;100.00;63763.75;341944;28;137050;-67
2021/07/22 03:20:46;;;;;;;17.38;12.60;;;;;;;-145.12;100.00;63763.75;341676;28;138531;-68
2021/07/22 03:21:57;;;;;;;16.08;11.90;;;;;;;-145.12;100.00;63763.75;341977;28;136449;-68
2021/07/22 03:23:08;;;;;;;17.58;11.63;;;;;;;-145.12;100.00;63763.75;342277;28;136536;-67
2021/07/22 03:24:19;;;;;;;16.20;12.40;;;;;;;-145.12;100.00;63763.75;343315;28;137224;-67
2021/07/22 03:25:31;;;;;;;15.52;11.75;;;;;;;-145.12;100.00;63763.75;341935;28;137161;-67
2021/07/22 03:26:42;;;;;;;16.08;11.75;;;;;;;-145.12;100.00;63763.75;343143;28;137238;-68
2021/07/22 03:27:57;;;;;;;18.48;11.27;;;;;;;-145.12;100.00;63763.75;343104;28;138020;-66
2021/07/22 03:29:09;;;;;;;17.08;11.63;;;;;;;-145.12;100.00;63763.75;341989;28;138053;-66
2021/07/22 03:30:20;;;;;;;16.27;11.73;;;;;;;-145.12;100.00;63763.75;341294;28;160343;-67
2021/07/22 03:31:31;;;;;;;14.50;11.30;;;;;;;-145.12;100.00;63763.75;342059;28;137311;-67
2021/07/22 03:32:45;;;;;;;16.73;12.00;;;;;;;-145.12;100.00;63763.75;341798;28;138410;-66
2021/07/22 03:33:56;;;;;;;16.38;12.05;;;;;;;-145.12;100.00;63763.75;342678;28;138492;-68
2021/07/22 03:35:09;;;;;;;16.42;12.02;;;;;;;-145.12;100.00;63763.75;340540;28;138004;-67
2021/07/22 03:36:20;;;;;;;15.90;11.93;;;;;;;-145.12;100.00;63763.75;341737;28;136554;-67
2021/07/22 03:37:31;;;;;;;15.63;11.13;;;;;;;-145.12;100.00;63763.75;342995;28;138126;-67
2021/07/22 03:38:43;;;;;;;15.70;11.15;;;;;;;-145.12;100.00;63763.75;343126;28;137308;-68
2021/07/22 03:39:54;;;;;;;16.48;10.90;;;;;;;-145.12;100.00;63763.75;343182;28;138931;-67
2021/07/22 03:41:05;;;;;;;16.35;11.25;;;;;;;-145.12;100.00;63763.75;343172;28;138840;-67
2021/07/22 03:42:16;;;;;;;17.65;11.77;;;;;;;-145.12;100.00;63763.75;343066;28;137050;-67
2021/07/22 03:43:27;;;;;;;16.13;11.88;;;;;;;-145.12;100.00;63763.75;343182;28;137079;-68
2021/07/22 03:44:38;;;;;;;16.73;11.63;;;;;;;-145.12;100.00;63763.75;342990;28;137214;-67
2021/07/22 03:45:59;;;;;;;15.82;11.93;;;;;;;-145.12;100.00;63763.75;342394;28;160233;-67
2021/07/22 03:47:10;;;;;;;15.57;11.05;;;;;;;-145.12;100.00;63763.75;342608;28;160177;-66
2021/07/22 03:48:21;;;;;;;16.63;11.52;;;;;;;-145.12;100.00;63763.75;343078;28;138503;-67
2021/07/22 03:49:33;;;;;;;16.92;11.27;;;;;;;-145.12;100.00;63763.75;343186;28;138245;-67
2021/07/22 03:50:48;;;;;;;16.73;11.30;;;;;;;-145.12;100.00;63763.75;342974;28;138623;-67
2021/07/22 03:51:59;;;;;;;17.05;11.93;;;;;;;-145.12;100.00;63763.75;344414;28;138457;-67
2021/07/22 03:53:11;;;;;;;15.77;11.43;;;;;;;-145.12;100.00;63763.75;343780;28;161307;-67
2021/07/22 03:54:22;;;;;;;16.95;11.73;;;;;;;-145.12;100.00;63763.75;344495;28;138139;-66
2021/07/22 03:55:33;;;;;;;16.77;11.85;;;;;;;-145.12;100.00;63763.75;344462;28;138157;-68
2021/07/22 03:56:44;;;;;;;15.65;11.82;;;;;;;-145.12;100.00;63763.75;344637;28;138377;-68
2021/07/22 03:57:56;;;;;;;15.45;11.23;;;;;;;-145.12;100.00;63763.75;344488;28;137252;-67
2021/07/22 03:59:07;;;;;;;14.88;11.98;;;;;;;-145.12;100.00;63763.75;344542;28;138145;-67
2021/07/22 04:00:18;;;;;;;20.30;12.00;;;;;;;-145.12;100.00;63763.75;344545;28;138090;-68
2021/07/22 04:01:29;;;;;;;17.63;11.63;;;;;;;-145.12;100.00;63763.75;344582;28;137593;-67
2021/07/22 04:02:41;;;;;;;16.20;11.32;;;;;;;-145.12;100.00;63763.75;344384;28;138534;-67
2021/07/22 04:03:59;;;;;;;14.65;11.73;;;;;;;-145.12;100.00;63763.75;344588;28;137210;-66
2021/07/22 04:05:10;;;;;;;16.70;11.93;;;;;;;-145.12;100.00;63763.75;344596;28;137130;-66
2021/07/22 04:06:22;;;;;;;16.80;12.23;;;;;;;-145.12;100.00;63763.75;344546;28;138366;-65
2021/07/22 04:07:36;;;;;;;15.70;11.60;;;;;;;-145.12;100.00;63763.75;344608;28;136486;-66
2021/07/22 04:08:47;;;;;;;16.42;11.32;;;;;;;-145.12;100.00;63763.75;342478;28;161556;-66
2021/07/22 04:09:58;;;;;;;18.90;11.63;;;;;;;-145.12;100.00;63763.75;343320;28;137418;-66
2021/07/22 04:11:09;;;;;;;16.33;12.23;;;;;;;-145.12;100.00;63763.75;343179;28;138495;-66
2021/07/22 04:12:20;;;;;;;16.70;11.93;;;;;;;-145.12;100.00;63763.75;343192;28;136620;-67
2021/07/22 04:13:32;;;;;;;15.65;12.05;;;;;;;-145.12;100.00;63763.75;341994;28;136463;-66
2021/07/22 04:14:43;;;;;;;17.15;12.27;;;;;;;-145.12;100.00;63763.75;344459;28;136406;-66
2021/07/22 04:15:54;;;;;;;16.75;11.45;;;;;;;-145.12;100.00;63763.75;344553;28;136960;-65
2021/07/22 04:17:05;;;;;;;17.30;12.55;;;;;;;-145.12;100.00;63763.75;344725;28;137592;-66
2021/07/22 04:18:16;;;;;;;18.10;11.68;;;;;;;-145.12;100.00;63763.75;344504;28;138616;-66
2021/07/22 04:19:28;;;;;;;17.40;11.60;;;;;;;-145.12;100.00;63763.75;344422;28;137758;-66
2021/07/22 04:20:39;;;;;;;17.95;11.75;;;;;;;-145.12;100.00;63763.75;344444;28;137042;-66
2021/07/22 04:21:50;;;;;;;15.45;11.55;;;;;;;-145.12;100.00;63763.75;344496;28;138117;-66
2021/07/22 04:23:01;;;;;;;15.30;11.00;;;;;;;-145.12;100.00;63763.75;344635;28;137119;-66
2021/07/22 04:24:12;;;;;;;14.88;11.15;;;;;;;-145.12;100.00;63763.75;343000;28;138484;-66
2021/07/22 04:25:24;;;;;;;16.48;11.10;;;;;;;-145.12;100.00;63763.75;343207;28;136945;-66
2021/07/22 04:26:35;;;;;;;16.35;11.60;;;;;;;-145.12;100.00;63763.75;343649;28;161705;-66
2021/07/22 04:27:46;;;;;;;15.63;11.00;;;;;;;-145.12;100.00;63763.75;344360;28;138109;-66
2021/07/22 04:28:57;;;;;;;15.80;11.35;;;;;;;-145.12;100.00;63763.75;343512;28;161295;-66
2021/07/22 04:30:09;;;;;;;15.88;12.15;;;;;;;-145.12;100.00;63763.75;344545;28;138118;-67
2021/07/22 04:31:20;;;;;;;16.08;11.68;;;;;;;-145.12;100.00;63763.75;344561;28;137364;-66
2021/07/22 04:32:31;;;;;;;17.35;13.45;;;;;;;-145.12;100.00;63763.75;344236;28;138363;-67
2021/07/22 04:33:43;;;;;;;16.83;12.77;;;;;;;-145.12;100.00;63763.75;344591;28;136536;-67
2021/07/22 04:34:54;;;;;;;17.85;12.40;;;;;;;-145.12;100.00;63763.75;344293;28;138340;-66
2021/07/22 04:36:05;;;;;;;17.23;12.60;;;;;;;-145.12;100.00;63763.75;344270;28;138652;-66
2021/07/22 04:37:17;;;;;;;20.23;14.55;;;;;;;-145.12;100.00;63763.75;343555;28;159991;-67
2021/07/22 04:38:29;;;;;;;19.38;13.27;;;;;;;-145.12;100.00;63763.75;344593;28;136993;-67
2021/07/22 04:39:40;;;;;;;16.50;12.48;;;;;;;-145.12;100.00;63763.75;344574;28;137226;-66
2021/07/22 04:40:51;;;;;;;19.02;13.60;;;;;;;-145.12;100.00;63763.75;344529;28;136526;-66
2021/07/22 04:42:03;;;;;;;18.85;13.70;;;;;;;-145.12;100.00;63763.75;344610;28;136548;-66
2021/07/22 04:43:14;;;;;;;19.48;15.02;;;;;;;-145.12;100.00;63763.75;344278;28;138443;-67
2021/07/22 04:44:26;;;;;;;19.63;14.43;;;;;;;-145.12;100.00;63763.75;344412;28;138311;-67
2021/07/22 04:45:37;;;;;;;17.38;12.65;;;;;;;-145.12;100.00;63763.75;344360;28;137268;-67
2021/07/22 04:46:48;;;;;;;17.30;13.75;;;;;;;-145.12;100.00;63763.75;344374;28;138497;-67
2021/07/22 04:48:01;;;;;;;17.17;13.93;;;;;;;-145.12;100.00;63763.75;343854;28;160283;-67
2021/07/22 04:49:12;;;;;;;21.65;16.00;;;;;;;-145.12;100.00;63763.75;343818;28;159381;-67
2021/07/22 04:50:23;;;;;;;17.38;11.73;;;;;;;-145.12;100.00;63763.75;344408;28;138890;-67
2021/07/22 04:51:34;;;;;;;19.00;14.20;;;;;;;-145.12;100.00;63763.75;343551;28;161408;-68
2021/07/22 04:52:46;;;;;;;19.13;14.88;;;;;;;-145.12;100.00;63763.75;344600;28;136537;-68
2021/07/22 04:53:57;;;;;;;14.95;11.07;;;;;;;-145.12;100.00;63763.75;343166;28;138007;-67
2021/07/22 04:55:09;;;;;;;19.60;13.50;;;;;;;-145.12;100.00;63763.75;343403;28;137088;-68
2021/07/22 04:56:20;;;;;;;19.88;13.45;;;;;;;-145.12;100.00;63763.75;344441;28;137155;-66
2021/07/22 04:57:31;;;;;;;17.95;13.85;;;;;;;-145.12;100.00;63763.75;344477;28;137013;-67
2021/07/22 04:58:42;;;;;;;20.75;12.90;;;;;;;-145.12;100.00;63763.75;344266;28;138326;-68
2021/07/22 04:59:53;;;;;;;18.50;12.15;;;;;;;-145.12;100.00;63763.75;344416;28;138354;-67
2021/07/22 05:01:06;;;;;;;17.23;12.30;;;;;;;-145.12;100.00;63763.75;344415;28;137245;-67
2021/07/22 05:02:19;;;;;;;18.77;13.80;;;;;;;-145.12;100.00;63763.75;344358;28;137240;-67
2021/07/22 05:03:31;;;;;;;14.55;10.77;;;;;;;-145.12;100.00;63763.75;344362;28;137073;-67
2021/07/22 05:04:42;;;;;;;21.35;16.25;;;;;;;-145.12;100.00;63763.75;343641;28;160893;-67
2021/07/22 05:05:53;;;;;;;17.52;11.48;;;;;;;-145.12;100.00;63763.75;344033;28;137817;-67
2021/07/22 05:07:07;;;;;;;16.90;12.50;;;;;;;-145.12;100.00;63763.75;345080;28;137106;-67
2021/07/22 05:08:18;;;;;;;19.00;11.65;;;;;;;-145.12;100.00;63763.75;343721;28;137251;-65
2021/07/22 05:09:29;;;;;;;15.73;12.00;;;;;;;-145.12;100.00;63763.75;342847;28;138416;-67
2021/07/22 05:10:40;;;;;;;16.95;12.32;;;;;;;-145.12;100.00;63763.75;344502;28;136983;-66
2021/07/22 05:11:55;;;;;;;15.05;10.68;;;;;;;-145.12;100.00;63763.75;344530;28;137089;-68
2021/07/22 05:13:07;;;;;;;17.42;12.13;;;;;;;-145.12;100.00;63763.75;345919;28;137272;-65
2021/07/22 05:14:18;;;;;;;15.82;11.52;;;;;;;-145.12;100.00;63763.75;345694;28;138377;-65
2021/07/22 05:15:29;;;;;;;15.65;11.00;;;;;;;-145.12;100.00;63763.75;345616;28;137324;-65
2021/07/22 05:16:40;;;;;;;15.23;11.38;;;;;;;-145.12;100.00;63763.75;345740;28;137682;-65
2021/07/22 05:17:52;;;;;;;18.38;13.98;;;;;;;-145.12;100.00;63763.75;343607;28;138723;-66